Time;durP1;ratioP1;P1;durP2;ratioP2;P2;SDS_P1;SDS_P2;PMS_P1;PMS_P2;Temp;Humidity;BMP_temperature;BMP_pressure;BME280_temperature;BME280_humidity;BME280_pressure;Samples;Min_cycle;Max_cycle;Signal;HPM_P1;HPM_P2
2022/12/18 00:01:27;;;;;;;69.23;31.07;;;-0.80;76.70;;;;;;5118570;27;20382;-75
2022/12/18 00:03:54;;;;;;;;;;;-0.80;76.60;;;;;;5101905;27;20038;-76
2022/12/18 00:06:20;;;;;;;65.93;28.90;;;-0.80;76.20;;;;;;5118262;27;20398;-76
2022/12/18 00:08:47;;;;;;;73.07;31.57;;;-0.80;76.40;;;;;;5118412;27;20037;-76
2022/12/18 00:11:18;;;;;;;63.67;30.27;;;-0.80;76.30;;;;;;5122573;27;20068;-75
2022/12/18 00:13:44;;;;;;;71.90;31.50;;;-0.80;76.20;;;;;;5118334;27;20035;-75
2022/12/18 00:16:18;;;;;;;69.27;31.33;;;-0.80;75.80;;;;;;5119400;27;20039;-69
2022/12/18 00:18:43;;;;;;;61.33;29.63;;;-0.90;75.80;;;;;;5119666;27;20496;-70
2022/12/18 00:21:11;;;;;;;61.63;30.30;;;-0.80;75.70;;;;;;5119676;27;20070;-69
2022/12/18 00:23:38;;;;;;;65.07;30.10;;;-0.90;75.80;;;;;;5145074;27;20043;-69
2022/12/18 00:26:06;;;;;;;70.73;31.53;;;-0.90;75.90;;;;;;5129968;27;20051;-70
2022/12/18 00:28:33;;;;;;;65.37;30.03;;;-0.90;76.00;;;;;;5104241;27;20072;-70
2022/12/18 00:31:19;;;;;;;62.83;30.33;;;-1.00;75.60;;;;;;5118630;27;20114;-69
2022/12/18 00:33:46;;;;;;;64.30;29.30;;;-0.90;75.80;;;;;;5117588;27;20039;-70
2022/12/18 00:36:23;;;;;;;55.30;27.37;;;-1.00;75.70;;;;;;5131380;27;20051;-70
2022/12/18 00:38:49;;;;;;;64.23;30.53;;;-1.00;75.80;;;;;;5117166;27;20051;-69
2022/12/18 00:44:00;;;;;;;66.03;31.70;;;-1.00;75.90;;;;;;5102812;27;20104;-69
2022/12/18 00:46:26;;;;;;;67.90;29.60;;;-1.00;75.90;;;;;;5083627;27;20428;-71
2022/12/18 00:48:51;;;;;;;61.80;28.23;;;-1.00;75.70;;;;;;5119000;27;20409;-70
2022/12/18 00:51:17;;;;;;;55.87;28.33;;;-1.00;75.40;;;;;;5115457;27;20050;-76
2022/12/18 00:53:43;;;;;;;61.23;29.00;;;-1.10;75.30;;;;;;5117167;27;20047;-75
2022/12/18 00:56:08;;;;;;;60.27;28.33;;;-1.10;75.30;;;;;;5134462;27;20499;-75
2022/12/18 00:58:34;;;;;;;63.57;30.63;;;-1.10;75.40;;;;;;5106790;27;20046;-75
2022/12/18 01:01:00;;;;;;;62.27;28.37;;;-1.10;75.50;;;;;;5117822;27;20031;-77
2022/12/18 01:03:25;;;;;;;62.63;29.37;;;-1.10;75.50;;;;;;5117255;27;20035;-70
2022/12/18 01:05:51;;;;;;;68.13;30.60;;;-1.10;75.40;;;;;;5109976;27;20497;-71
2022/12/18 01:08:17;;;;;;;66.33;31.90;;;-1.20;75.30;;;;;;5099924;27;20035;-70
2022/12/18 01:10:42;;;;;;;64.37;31.80;;;-1.20;75.20;;;;;;5082716;27;20160;-71
2022/12/18 01:13:08;;;;;;;63.80;29.23;;;-1.20;75.20;;;;;;5116602;27;20035;-71
2022/12/18 01:15:34;;;;;;;66.03;29.60;;;-1.10;75.40;;;;;;5116598;27;20023;-71
2022/12/18 01:17:59;;;;;;;61.57;30.27;;;-1.20;75.50;;;;;;5116762;27;20078;-70
2022/12/18 01:20:25;;;;;;;66.97;31.57;;;-1.20;75.60;;;;;;5099711;27;20486;-70
2022/12/18 01:22:51;;;;;;;68.50;31.40;;;-1.20;75.60;;;;;;5132750;27;20046;-70
2022/12/18 01:25:17;;;;;;;65.47;29.67;;;-1.20;75.50;;;;;;5125491;27;20494;-70
2022/12/18 01:27:42;;;;;;;65.23;30.93;;;-1.30;75.10;;;;;;5099122;27;20047;-70
2022/12/18 01:30:08;;;;;;;68.53;31.33;;;-1.30;75.30;;;;;;5099369;27;20039;-70
2022/12/18 01:32:34;;;;;;;60.60;28.90;;;-1.30;75.40;;;;;;5116368;27;20031;-70
2022/12/18 01:35:00;;;;;;;61.53;30.80;;;-1.30;75.60;;;;;;5116232;27;20115;-70
2022/12/18 01:37:25;;;;;;;61.57;29.17;;;-1.30;75.80;;;;;;5116042;27;20047;-70
2022/12/18 01:39:54;;;;;;;64.23;30.07;;;-1.30;75.50;;;;;;5098837;27;20039;-70
2022/12/18 01:42:20;;;;;;;62.87;30.33;;;-1.30;75.40;;;;;;5115991;27;20046;-70
2022/12/18 01:44:58;;;;;;;67.77;30.00;;;-1.30;75.30;;;;;;5129235;27;20095;-76
2022/12/18 01:47:26;;;;;;;70.10;32.47;;;-1.40;75.30;;;;;;5099606;27;20035;-76
2022/12/18 01:49:53;;;;;;;62.73;31.73;;;-1.40;75.20;;;;;;5116211;27;20085;-76
2022/12/18 01:52:20;;;;;;;64.77;32.00;;;-1.40;75.10;;;;;;5115767;27;20107;-76
2022/12/18 01:54:48;;;;;;;58.00;27.87;;;-1.50;75.10;;;;;;5116756;27;20509;-77
2022/12/18 01:57:14;;;;;;;76.83;35.43;;;-1.50;75.30;;;;;;5116078;27;20501;-77
2022/12/18 01:59:44;;;;;;;78.40;36.70;;;-1.50;75.30;;;;;;5115796;27;20116;-70
2022/12/18 02:02:09;;;;;;;66.27;32.90;;;-1.50;75.30;;;;;;5115070;28;20035;-70
2022/12/18 02:04:35;;;;;;;72.40;36.10;;;-1.60;75.10;;;;;;5115317;27;20050;-70
2022/12/18 02:07:11;;;;;;;77.63;35.60;;;-1.60;75.00;;;;;;5099080;27;20386;-76
2022/12/18 02:10:23;;;;;;;73.53;34.13;;;-1.70;75.00;;;;;;5098833;27;20074;-70
2022/12/18 02:13:14;;;;;;;74.23;35.40;;;-1.80;74.90;;;;;;5115204;27;20047;-71
2022/12/18 02:16:01;;;;;;;77.57;36.87;;;-1.80;75.60;;;;;;5115270;27;20043;-71
2022/12/18 02:18:40;;;;;;;71.37;31.83;;;-1.90;75.30;;;;;;5098377;27;20035;-71
2022/12/18 02:21:34;;;;;;;80.13;37.33;;;-1.90;75.50;;;;;;5115792;28;20122;-68
2022/12/18 02:24:37;;;;;;;78.17;36.40;;;-1.90;75.60;;;;;;5115273;27;20042;-70
2022/12/18 02:27:06;;;;;;;71.77;32.57;;;-1.90;75.50;;;;;;5116651;27;20410;-70
2022/12/18 02:29:37;;;;;;;71.53;33.60;;;-2.00;75.30;;;;;;5115375;28;20054;-70
2022/12/18 02:32:09;;;;;;;66.47;30.00;;;-2.00;75.40;;;;;;5119579;27;20047;-70
2022/12/18 02:34:38;;;;;;;70.73;32.90;;;-2.00;75.40;;;;;;5098736;28;20047;-70
2022/12/18 02:37:09;;;;;;;68.23;31.53;;;-2.00;75.60;;;;;;5115372;28;20066;-70
2022/12/18 02:39:38;;;;;;;70.77;33.73;;;-2.00;76.10;;;;;;5132446;28;20080;-70
2022/12/18 02:42:07;;;;;;;64.70;30.17;;;-2.00;75.80;;;;;;5115670;28;20497;-70
2022/12/18 02:44:35;;;;;;;68.33;31.90;;;-1.90;76.00;;;;;;5120495;28;20042;-70
2022/12/18 02:47:01;;;;;;;62.70;29.20;;;-1.90;76.10;;;;;;5115067;28;20043;-70
2022/12/18 02:49:27;;;;;;;60.10;29.83;;;-2.00;76.30;;;;;;5129432;28;20046;-70
2022/12/18 02:51:53;;;;;;;59.03;29.87;;;-1.90;75.90;;;;;;5115335;28;20115;-70
2022/12/18 02:54:30;;;;;;;63.93;30.70;;;-1.90;75.80;;;;;;5115564;28;20050;-69
2022/12/18 02:57:03;;;;;;;63.53;28.13;;;-1.80;75.90;;;;;;5115186;28;20046;-68
2022/12/18 02:59:39;;;;;;;62.27;29.73;;;-1.80;75.90;;;;;;5096645;28;20596;-68
2022/12/18 03:02:26;;;;;;;56.03;27.20;;;-1.80;75.90;;;;;;5111792;28;20471;-69
2022/12/18 03:05:13;;;;;;;62.13;28.60;;;-1.80;75.80;;;;;;5114948;28;20364;-68
2022/12/18 03:07:47;;;;;;;59.93;27.30;;;-1.80;75.50;;;;;;5121807;28;20031;-74
2022/12/18 03:10:16;;;;;;;57.07;28.80;;;-1.80;75.10;;;;;;5098276;28;20043;-75
2022/12/18 03:12:50;;;;;;;51.97;26.77;;;-1.80;75.00;;;;;;5097717;28;20050;-74
2022/12/18 03:15:26;;;;;;;57.88;29.23;;;-1.90;74.90;;;;;;5135911;27;20042;-74
2022/12/18 03:17:59;;;;;;;56.40;26.07;;;-1.90;74.70;;;;;;5127142;27;20045;-74
2022/12/18 03:20:28;;;;;;;58.97;27.23;;;-1.90;74.70;;;;;;5118354;27;20059;-68
2022/12/18 03:23:02;;;;;;;51.60;27.47;;;-1.90;74.70;;;;;;5118639;27;20043;-69
2022/12/18 03:25:29;;;;;;;55.63;26.73;;;-1.90;74.80;;;;;;5118932;27;20035;-74
2022/12/18 03:27:59;;;;;;;52.77;25.83;;;-1.80;74.80;;;;;;5118767;27;20065;-74
2022/12/18 03:30:28;;;;;;;54.03;25.70;;;-1.80;74.80;;;;;;5102128;27;20371;-74
2022/12/18 03:33:00;;;;;;;49.70;25.30;;;-1.80;74.70;;;;;;5119679;27;20517;-74
2022/12/18 03:35:31;;;;;;;52.70;25.07;;;-1.90;74.10;;;;;;5102615;27;20039;-74
2022/12/18 03:37:57;;;;;;;49.30;25.27;;;-1.90;73.60;;;;;;5118605;27;20494;-74
2022/12/18 03:40:31;;;;;;;47.83;26.43;;;-2.00;73.20;;;;;;5118698;27;20051;-73
2022/12/18 03:43:10;;;;;;;47.17;24.67;;;-2.00;73.20;;;;;;5101917;27;20419;-74
2022/12/18 03:45:41;;;;;;;50.90;24.27;;;-2.10;73.00;;;;;;5118853;27;20490;-75
2022/12/18 03:48:24;;;;;;;49.07;23.93;;;-2.10;73.20;;;;;;5119002;27;20095;-74
2022/12/18 03:50:59;;;;;;;51.20;25.30;;;-2.10;73.30;;;;;;5124064;27;20424;-74
2022/12/18 03:53:38;;;;;;;50.73;24.23;;;-2.10;73.30;;;;;;5136680;27;20050;-74
2022/12/18 03:56:05;;;;;;;55.40;25.20;;;-2.10;73.40;;;;;;5105566;27;20096;-68
2022/12/18 03:58:34;;;;;;;52.67;26.43;;;-2.10;73.70;;;;;;5119959;27;20072;-68
2022/12/18 04:01:03;;;;;;;48.93;24.63;;;-2.10;73.80;;;;;;5133365;27;20049;-68
2022/12/18 04:03:31;;;;;;;48.43;23.80;;;-2.10;73.80;;;;;;5117510;27;20031;-69
2022/12/18 04:06:00;;;;;;;46.77;22.73;;;-2.10;73.50;;;;;;5117864;27;20043;-68
2022/12/18 04:08:26;;;;;;;41.33;22.23;;;-2.10;73.40;;;;;;5118178;27;20039;-68
2022/12/18 04:10:52;;;;;;;45.10;22.17;;;-2.20;73.00;;;;;;5118034;27;20068;-68
2022/12/18 04:13:29;;;;;;;46.00;23.97;;;-2.20;72.60;;;;;;5084071;27;20043;-69
2022/12/18 04:15:54;;;;;;;51.30;24.90;;;-2.20;72.60;;;;;;5124327;27;20084;-68
2022/12/18 04:18:20;;;;;;;51.70;24.53;;;-2.30;72.50;;;;;;5135005;27;20122;-68
2022/12/18 04:20:46;;;;;;;46.10;22.90;;;-2.30;72.70;;;;;;5134908;27;20093;-68
2022/12/18 04:23:11;;;;;;;46.77;24.37;;;-2.30;73.10;;;;;;5135134;27;20099;-69
2022/12/18 04:25:37;;;;;;;52.73;24.80;;;-2.30;73.40;;;;;;5132025;27;20443;-68
2022/12/18 04:28:03;;;;;;;49.70;22.53;;;-2.20;73.60;;;;;;5124986;27;20032;-68
2022/12/18 04:30:28;;;;;;;50.87;24.80;;;-2.20;73.70;;;;;;5117590;27;20071;-68
2022/12/18 04:32:54;;;;;;;46.87;23.60;;;-2.20;73.60;;;;;;5117700;27;20041;-68
2022/12/18 04:35:20;;;;;;;50.43;25.00;;;-2.20;73.70;;;;;;5100380;27;20527;-68
2022/12/18 04:37:45;;;;;;;54.80;24.63;;;-2.20;73.70;;;;;;5117505;27;20040;-68
2022/12/18 04:40:11;;;;;;;44.60;22.30;;;-2.20;73.50;;;;;;5117368;27;20073;-68
2022/12/18 04:42:39;;;;;;;52.20;24.90;;;-2.20;73.50;;;;;;5117644;27;20564;-68
2022/12/18 04:45:05;;;;;;;48.90;23.20;;;-2.20;73.50;;;;;;5134582;27;20092;-68
2022/12/18 04:47:31;;;;;;;50.07;23.70;;;-2.20;73.30;;;;;;5117632;27;20035;-68
2022/12/18 04:49:56;;;;;;;43.63;21.73;;;-2.20;73.10;;;;;;5117678;27;20542;-68
2022/12/18 04:52:22;;;;;;;45.40;22.10;;;-1.70;72.90;;;;;;5117310;27;20081;-68
2022/12/18 04:54:48;;;;;;;52.20;22.70;;;-2.30;72.40;;;;;;5117231;27;20038;-68
2022/12/18 04:57:13;;;;;;;45.67;22.83;;;-2.30;72.50;;;;;;5113174;27;20035;-68
2022/12/18 04:59:39;;;;;;;45.73;22.80;;;-2.40;72.50;;;;;;5116725;27;20474;-68
2022/12/18 05:02:05;;;;;;;49.57;22.70;;;-1.90;73.10;;;;;;5117310;27;20039;-68
2022/12/18 05:04:31;;;;;;;48.97;23.43;;;-2.40;73.00;;;;;;5117159;27;20074;-68
2022/12/18 05:06:56;;;;;;;45.47;21.00;;;-2.40;73.00;;;;;;5121256;27;20497;-68
2022/12/18 05:09:23;;;;;;;46.97;21.87;;;-2.30;72.80;;;;;;5115874;27;20067;-68
2022/12/18 05:11:48;;;;;;;45.53;22.23;;;-2.40;72.60;;;;;;5119952;27;20047;-70
2022/12/18 05:14:14;;;;;;;51.37;23.07;;;-2.40;72.40;;;;;;5116778;27;20043;-70
2022/12/18 05:16:40;;;;;;;44.10;21.60;;;-2.40;72.20;;;;;;5133846;27;20402;-69
2022/12/18 05:19:05;;;;;;;44.87;23.13;;;-2.40;71.80;;;;;;5116491;27;20039;-67
2022/12/18 05:21:31;;;;;;;46.57;23.03;;;-2.50;71.90;;;;;;5112551;27;20043;-67
2022/12/18 05:23:57;;;;;;;44.70;21.07;;;-2.50;72.10;;;;;;5097752;27;20352;-67
2022/12/18 05:26:22;;;;;;;48.20;21.40;;;-2.50;72.10;;;;;;5099270;27;20104;-67
2022/12/18 05:28:48;;;;;;;48.63;23.43;;;-2.50;72.20;;;;;;5116210;27;20662;-67
2022/12/18 05:31:14;;;;;;;50.33;23.43;;;-2.50;72.00;;;;;;5131458;27;20075;-67
2022/12/18 05:33:40;;;;;;;43.40;21.87;;;-2.50;71.90;;;;;;5116571;27;20035;-67
2022/12/18 05:36:07;;;;;;;45.77;21.10;;;-2.50;71.70;;;;;;5130230;27;20122;-67
2022/12/18 05:38:35;;;;;;;43.03;21.70;;;-2.50;71.80;;;;;;5116347;27;20054;-67
2022/12/18 05:41:02;;;;;;;44.77;21.13;;;-2.60;71.90;;;;;;5122759;27;20492;-67
2022/12/18 05:43:28;;;;;;;44.83;22.57;;;-2.60;72.10;;;;;;5133098;27;20066;-68
2022/12/18 05:45:55;;;;;;;45.80;21.30;;;-2.60;72.70;;;;;;5099373;27;20510;-67
2022/12/18 05:48:21;;;;;;;45.67;20.97;;;-2.60;72.30;;;;;;5116098;27;20047;-67
2022/12/18 05:50:48;;;;;;;45.17;21.50;;;-2.50;72.40;;;;;;5115957;27;20508;-67
2022/12/18 05:53:16;;;;;;;42.00;19.60;;;-2.50;72.50;;;;;;5117283;27;20031;-67
2022/12/18 05:55:42;;;;;;;44.63;21.23;;;-2.50;72.60;;;;;;5115943;27;21804;-67
2022/12/18 05:58:09;;;;;;;43.57;21.30;;;-2.50;72.60;;;;;;5097758;27;20039;-67
2022/12/18 06:00:39;;;;;;;45.53;22.40;;;-2.50;72.20;;;;;;5116859;27;20073;-68
2022/12/18 06:03:06;;;;;;;51.77;22.47;;;-2.50;72.00;;;;;;5132596;27;20108;-67
2022/12/18 06:05:37;;;;;;;42.97;21.57;;;-2.60;72.00;;;;;;5099065;27;20031;-67
2022/12/18 06:08:03;;;;;;;49.07;22.77;;;-2.60;72.00;;;;;;5125058;27;20067;-67
2022/12/18 06:10:29;;;;;;;43.50;21.00;;;-2.60;71.80;;;;;;5127712;27;20516;-67
2022/12/18 06:12:54;;;;;;;46.80;21.10;;;-2.60;71.60;;;;;;5115808;27;20070;-67
2022/12/18 06:15:20;;;;;;;46.60;22.90;;;-2.70;71.30;;;;;;5098853;27;20039;-67
2022/12/18 06:17:45;;;;;;;42.00;20.83;;;-2.70;71.00;;;;;;5115777;27;20058;-67
2022/12/18 06:20:11;;;;;;;45.10;20.40;;;-2.70;71.00;;;;;;5115722;27;20047;-67
2022/12/18 06:22:37;;;;;;;45.97;21.20;;;-2.80;70.80;;;;;;5098650;27;20121;-67
2022/12/18 06:25:03;;;;;;;48.47;22.67;;;-2.80;70.90;;;;;;5117389;27;20050;-67
2022/12/18 06:27:29;;;;;;;42.50;20.93;;;-2.80;71.00;;;;;;5119423;27;20043;-72
2022/12/18 06:29:54;;;;;;;47.13;21.57;;;-2.90;71.00;;;;;;5122388;27;20107;-72
2022/12/18 06:32:20;;;;;;;53.47;22.90;;;-2.90;70.90;;;;;;5098434;27;20397;-72
2022/12/18 06:34:45;;;;;;;52.43;24.80;;;-2.90;70.50;;;;;;5115600;27;20468;-72
2022/12/18 06:37:11;;;;;;;50.43;21.77;;;-3.00;70.20;;;;;;5115615;28;20047;-72
2022/12/18 06:39:37;;;;;;;46.63;22.10;;;-3.10;69.70;;;;;;5123898;28;20035;-73
2022/12/18 06:42:03;;;;;;;47.20;21.00;;;-3.20;69.60;;;;;;5114927;28;20421;-72
2022/12/18 06:44:29;;;;;;;42.03;20.07;;;-3.20;69.70;;;;;;5116483;28;20031;-72
2022/12/18 06:46:55;;;;;;;44.67;21.20;;;-3.30;69.80;;;;;;5115276;28;20427;-72
2022/12/18 06:49:20;;;;;;;42.87;22.00;;;-3.40;69.80;;;;;;5100385;27;20039;-73
2022/12/18 06:51:46;;;;;;;48.23;20.80;;;-3.40;69.90;;;;;;5119708;27;20516;-73
2022/12/18 06:54:12;;;;;;;39.60;19.27;;;-3.50;69.90;;;;;;5102278;27;20047;-72
2022/12/18 06:56:38;;;;;;;43.43;20.83;;;-3.60;70.00;;;;;;5118803;27;20043;-72
2022/12/18 06:59:04;;;;;;;41.70;21.00;;;-3.60;70.30;;;;;;5118932;27;20035;-73
2022/12/18 07:01:29;;;;;;;40.13;18.70;;;-3.70;70.30;;;;;;5119581;27;20035;-73
2022/12/18 07:03:56;;;;;;;45.10;20.43;;;-3.70;70.30;;;;;;5119046;27;20035;-73
2022/12/18 07:06:24;;;;;;;44.57;19.77;;;-3.70;70.30;;;;;;5118213;27;20035;-72
2022/12/18 07:08:51;;;;;;;39.30;20.13;;;-3.90;70.30;;;;;;5116139;27;20518;-72
2022/12/18 07:11:18;;;;;;;44.70;21.27;;;-3.90;70.40;;;;;;5121369;27;20034;-73
2022/12/18 07:13:45;;;;;;;36.63;19.27;;;-4.00;70.50;;;;;;5107904;27;20035;-71
2022/12/18 07:16:15;;;;;;;40.47;18.50;;;-4.00;70.70;;;;;;5122362;27;20114;-66
2022/12/18 07:18:41;;;;;;;41.60;19.30;;;-4.10;70.70;;;;;;5122842;27;20047;-66
2022/12/18 07:21:13;;;;;;;33.33;17.53;;;-4.10;70.90;;;;;;5099577;27;20035;-67
2022/12/18 07:23:38;;;;;;;40.33;19.37;;;-4.10;71.00;;;;;;5122459;27;20043;-68
2022/12/18 07:26:09;;;;;;;38.30;20.00;;;-4.20;71.10;;;;;;5126372;27;20122;-67
2022/12/18 07:28:36;;;;;;;36.43;18.83;;;-4.20;71.20;;;;;;5113043;27;20064;-67
2022/12/18 07:31:14;;;;;;;39.83;18.20;;;-4.30;71.30;;;;;;5107911;27;20113;-67
2022/12/18 07:33:40;;;;;;;36.97;17.97;;;-4.30;71.50;;;;;;5114210;27;21474;-67
2022/12/18 07:36:07;;;;;;;40.03;20.17;;;-4.30;71.60;;;;;;5104340;27;20043;-71
2022/12/18 07:38:35;;;;;;;34.67;17.60;;;-4.30;71.80;;;;;;5120431;27;20087;-71
2022/12/18 07:41:13;;;;;;;46.90;20.57;;;-4.40;71.80;;;;;;5118485;27;20042;-72
2022/12/18 07:43:40;;;;;;;36.50;20.13;;;-4.40;71.90;;;;;;5095938;27;20114;-72
2022/12/18 07:46:07;;;;;;;38.30;18.87;;;-4.40;71.90;;;;;;5099543;27;20478;-72
2022/12/18 07:48:33;;;;;;;35.63;18.17;;;-4.40;72.30;;;;;;5129854;27;20042;-72
2022/12/18 07:51:01;;;;;;;34.93;17.87;;;-4.50;72.20;;;;;;5133212;27;20439;-71
2022/12/18 07:53:27;;;;;;;38.20;20.20;;;-4.40;72.30;;;;;;5106915;27;20367;-71
2022/12/18 07:55:57;;;;;;;37.07;18.60;;;-4.50;72.40;;;;;;5120071;27;20495;-72
2022/12/18 07:58:22;;;;;;;40.03;18.93;;;-4.50;72.60;;;;;;5135603;27;20065;-72
2022/12/18 08:00:48;;;;;;;35.27;17.83;;;-4.50;72.70;;;;;;5128354;27;20035;-71
2022/12/18 08:03:14;;;;;;;36.03;18.20;;;-4.50;72.70;;;;;;5114462;27;20418;-71
2022/12/18 08:05:39;;;;;;;38.33;18.97;;;-4.50;72.80;;;;;;5122873;27;20035;-71
2022/12/18 08:08:05;;;;;;;36.90;17.67;;;-4.50;73.00;;;;;;5112308;27;20031;-72
2022/12/18 08:10:31;;;;;;;36.63;18.40;;;-4.50;73.00;;;;;;5129279;27;20043;-71
2022/12/18 08:12:56;;;;;;;31.60;16.63;;;-4.50;73.10;;;;;;5098442;27;20529;-71
2022/12/18 08:15:22;;;;;;;31.83;17.80;;;-4.50;73.30;;;;;;5119800;27;20031;-71
2022/12/18 08:17:48;;;;;;;33.33;17.47;;;-4.50;73.40;;;;;;5122657;27;20638;-71
2022/12/18 08:20:14;;;;;;;33.73;18.57;;;-4.40;73.50;;;;;;5112510;27;20067;-70
2022/12/18 08:22:44;;;;;;;30.70;17.00;;;-4.40;73.50;;;;;;5125109;27;20093;-70
2022/12/18 08:25:10;;;;;;;34.03;16.73;;;-4.40;73.60;;;;;;5119067;27;20035;-70
2022/12/18 08:27:36;;;;;;;30.30;15.33;;;-4.40;73.60;;;;;;5116493;27;20429;-69
2022/12/18 08:30:03;;;;;;;32.63;16.20;;;-4.30;73.70;;;;;;5124539;27;20038;-65
2022/12/18 08:32:29;;;;;;;32.63;17.77;;;-4.30;73.70;;;;;;5127171;27;20041;-65
2022/12/18 08:34:54;;;;;;;31.97;17.83;;;-4.30;73.70;;;;;;5095274;27;20039;-67
2022/12/18 08:37:20;;;;;;;29.20;15.63;;;-4.30;73.80;;;;;;5111874;27;20031;-65
2022/12/18 08:39:46;;;;;;;32.87;16.70;;;-4.30;73.80;;;;;;5124226;27;20039;-65
2022/12/18 08:44:56;;;;;;;30.52;16.80;;;-4.20;74.00;;;;;;5125666;27;21363;-66
2022/12/18 08:47:21;;;;;;;29.13;16.00;;;-4.20;74.40;;;;;;5114943;27;20042;-67
2022/12/18 08:49:47;;;;;;;29.57;15.23;;;-4.20;74.10;;;;;;5110466;27;20057;-66
2022/12/18 08:52:12;;;;;;;30.30;15.87;;;-4.10;74.20;;;;;;5111500;27;20516;-66
2022/12/18 08:54:38;;;;;;;29.53;14.80;;;-4.10;74.20;;;;;;5111611;27;20065;-65
2022/12/18 08:57:04;;;;;;;28.87;15.63;;;-4.00;74.70;;;;;;5124325;27;20062;-65
2022/12/18 08:59:29;;;;;;;28.33;16.67;;;-4.00;74.40;;;;;;5131163;27;20367;-65
2022/12/18 09:01:55;;;;;;;26.17;15.47;;;-4.00;74.40;;;;;;5137538;27;20070;-72
2022/12/18 09:04:21;;;;;;;24.83;14.17;;;-3.90;74.50;;;;;;5137892;27;20119;-72
2022/12/18 09:06:47;;;;;;;26.40;15.40;;;-3.90;74.50;;;;;;5106767;27;20288;-72
2022/12/18 09:09:12;;;;;;;25.87;16.17;;;-3.80;74.50;;;;;;5117051;27;20516;-72
2022/12/18 09:11:38;;;;;;;30.20;14.97;;;-3.80;74.50;;;;;;5116393;27;20038;-65
2022/12/18 09:14:04;;;;;;;25.70;14.70;;;-3.80;74.50;;;;;;5116688;27;20371;-65
2022/12/18 09:16:31;;;;;;;26.90;14.87;;;-3.70;74.60;;;;;;5117064;27;20103;-65
2022/12/18 09:19:00;;;;;;;27.43;15.73;;;-3.70;74.60;;;;;;5116972;27;20047;-65
2022/12/18 09:21:29;;;;;;;25.03;14.27;;;-3.60;74.80;;;;;;5116285;27;20031;-65
2022/12/18 09:23:56;;;;;;;27.87;17.10;;;-3.60;74.80;;;;;;5116648;27;20039;-65
2022/12/18 09:26:23;;;;;;;25.67;15.10;;;-3.50;74.80;;;;;;5116301;27;20057;-71
2022/12/18 09:28:50;;;;;;;25.20;14.87;;;-3.50;74.90;;;;;;5116609;27;20039;-71
2022/12/18 09:31:17;;;;;;;22.67;14.03;;;-3.50;74.90;;;;;;5099607;27;20035;-71
2022/12/18 09:33:45;;;;;;;24.40;14.33;;;-3.40;74.90;;;;;;5095854;28;20035;-71
2022/12/18 09:36:13;;;;;;;25.30;15.07;;;-3.40;74.90;;;;;;5108947;27;20078;-71
2022/12/18 09:38:38;;;;;;;23.70;14.73;;;-3.30;75.00;;;;;;5120612;27;20502;-71
2022/12/18 09:41:40;;;;;;;22.40;13.20;;;-3.30;75.00;;;;;;5133687;27;20078;-71
2022/12/18 09:44:19;;;;;;;20.23;13.33;;;-3.20;75.20;;;;;;5116315;27;20047;-71
2022/12/18 09:46:53;;;;;;;24.20;13.23;;;-3.20;75.20;;;;;;5116241;27;20474;-72
2022/12/18 09:49:22;;;;;;;22.15;12.98;;;-3.10;75.30;;;;;;5132935;27;20121;-72
2022/12/18 09:51:57;;;;;;;22.37;13.63;;;-3.10;75.20;;;;;;5132093;27;20049;-72
2022/12/18 09:54:41;;;;;;;22.95;13.95;;;-3.00;75.30;;;;;;5123253;27;20074;-72
2022/12/18 09:57:10;;;;;;;20.87;12.03;;;-2.90;75.30;;;;;;5095812;28;20088;-66
2022/12/18 09:59:39;;;;;;;19.70;10.63;;;-2.90;75.30;;;;;;5095604;28;20035;-67
2022/12/18 10:02:32;;;;;;;20.63;11.27;;;-2.80;75.30;;;;;;5117454;27;20064;-67
2022/12/18 10:05:10;;;;;;;17.63;10.90;;;-2.70;75.30;;;;;;5118030;27;20078;-67
2022/12/18 10:08:26;;;;;;;18.53;11.47;;;-2.70;75.10;;;;;;5123956;27;20031;-67
2022/12/18 10:10:52;;;;;;;;;;;-2.60;75.00;;;;;;5024183;28;20051;-67
2022/12/18 10:13:42;;;;;;;18.33;10.33;;;-2.50;74.50;;;;;;5112248;27;19930;-66
2022/12/18 10:16:23;;;;;;;16.10;8.47;;;-2.40;74.70;;;;;;5119465;27;20065;-66
2022/12/18 10:19:11;;;;;;;16.37;9.67;;;-2.40;74.40;;;;;;5115458;27;20034;-67
2022/12/18 10:22:00;;;;;;;17.00;9.00;;;-2.30;74.10;;;;;;5105558;27;20047;-66
2022/12/18 10:24:50;;;;;;;19.70;10.37;;;-2.20;73.90;;;;;;5086463;27;20428;-67
2022/12/18 10:27:21;;;;;;;16.20;9.57;;;-2.10;73.40;;;;;;5123763;27;20133;-68
2022/12/18 10:29:47;;;;;;;14.20;8.93;;;-2.10;73.20;;;;;;5112650;27;20067;-67
2022/12/18 10:32:26;;;;;;;15.27;9.77;;;-2.10;73.00;;;;;;5104298;27;20039;-67
2022/12/18 10:34:56;;;;;;;16.63;10.80;;;-2.00;72.80;;;;;;5095014;27;20046;-68
2022/12/18 10:37:25;;;;;;;16.40;9.20;;;-2.00;72.60;;;;;;5122399;27;20125;-67
2022/12/18 10:40:15;;;;;;;15.83;8.93;;;-2.00;72.70;;;;;;5097725;28;20080;-67
2022/12/18 10:42:43;;;;;;;15.30;9.10;;;-1.90;72.60;;;;;;5118689;27;20145;-67
2022/12/18 10:45:15;;;;;;;16.27;9.17;;;-1.90;72.40;;;;;;5117639;27;20107;-69
2022/12/18 10:47:49;;;;;;;17.83;9.00;;;-1.80;72.40;;;;;;5117343;27;20084;-67
2022/12/18 10:50:35;;;;;;;14.80;8.83;;;-1.80;72.40;;;;;;5105887;28;20655;-67
2022/12/18 10:53:04;;;;;;;15.40;9.83;;;-1.60;72.30;;;;;;5114790;27;20039;-67
2022/12/18 10:55:34;;;;;;;14.13;9.53;;;-1.70;72.10;;;;;;5107060;27;20583;-67
2022/12/18 10:58:26;;;;;;;14.13;7.60;;;-1.70;72.10;;;;;;5091200;27;20095;-66
2022/12/18 11:01:16;;;;;;;12.83;8.70;;;-1.70;71.80;;;;;;5103391;27;20042;-67
2022/12/18 11:03:59;;;;;;;13.83;7.80;;;-1.60;71.70;;;;;;5123697;27;20435;-67
2022/12/18 11:06:25;;;;;;;12.23;8.40;;;-1.50;71.70;;;;;;5121534;27;20054;-66
2022/12/18 11:09:05;;;;;;;12.90;7.00;;;-1.50;71.40;;;;;;5107631;27;20133;-66
2022/12/18 11:11:32;;;;;;;14.00;8.20;;;-1.40;71.10;;;;;;5104944;27;20041;-66
2022/12/18 11:14:11;;;;;;;14.23;8.40;;;-1.40;71.00;;;;;;5129362;27;20124;-66
2022/12/18 11:16:44;;;;;;;16.00;8.57;;;-1.30;70.90;;;;;;5108746;27;20050;-66
2022/12/18 11:19:20;;;;;;;13.73;8.90;;;-1.30;70.70;;;;;;5122574;27;20031;-67
2022/12/18 11:21:45;;;;;;;14.97;9.40;;;-1.20;70.60;;;;;;5106626;27;20079;-67
2022/12/18 11:24:26;;;;;;;14.43;8.93;;;-1.20;70.50;;;;;;5108651;27;20067;-67
2022/12/18 11:26:52;;;;;;;14.77;9.00;;;-1.20;70.90;;;;;;5105871;28;20559;-73
2022/12/18 11:29:24;;;;;;;14.53;8.80;;;-1.10;70.40;;;;;;5103831;28;20035;-73
2022/12/18 11:31:50;;;;;;;11.33;7.53;;;-1.10;70.20;;;;;;5105814;28;20130;-73
2022/12/18 11:34:28;;;;;;;14.27;8.87;;;-1.00;70.20;;;;;;5102214;28;20114;-73
2022/12/18 11:36:54;;;;;;;14.47;8.53;;;-1.00;69.90;;;;;;5108971;27;20071;-73
2022/12/18 11:39:34;;;;;;;15.03;8.90;;;-1.00;69.70;;;;;;5108518;27;20071;-73
2022/12/18 11:42:18;;;;;;;13.17;7.87;;;-0.90;69.40;;;;;;5114890;27;20047;-73
2022/12/18 11:44:58;;;;;;;11.87;7.23;;;-0.90;69.40;;;;;;5117412;27;20130;-73
2022/12/18 11:47:48;;;;;;;11.63;7.57;;;-0.80;68.90;;;;;;5109189;27;20602;-73
2022/12/18 11:50:26;;;;;;;11.47;7.27;;;-0.80;68.60;;;;;;5110830;27;20494;-74
2022/12/18 11:52:52;;;;;;;12.20;7.13;;;-0.80;68.70;;;;;;5119337;27;20052;-76
2022/12/18 11:55:43;;;;;;;11.43;7.37;;;-0.70;68.50;;;;;;5114005;27;20054;-77
2022/12/18 11:58:19;;;;;;;15.73;8.30;;;-0.70;68.50;;;;;;5120456;27;20039;-77
2022/12/18 12:01:00;;;;;;;13.10;7.73;;;-0.70;68.40;;;;;;5119118;27;20051;-77
2022/12/18 12:03:47;;;;;;;14.40;8.43;;;-0.60;68.40;;;;;;5119583;27;20096;-78
2022/12/18 12:06:32;;;;;;;13.67;7.70;;;-0.60;68.30;;;;;;5102841;27;20036;-77
2022/12/18 12:09:18;;;;;;;13.02;7.95;;;-0.60;68.20;;;;;;5116251;27;20411;-77
2022/12/18 12:12:14;;;;;;;12.57;7.87;;;-0.60;68.00;;;;;;5100679;27;20043;-76
2022/12/18 12:15:06;;;;;;;11.57;7.67;;;-0.50;67.70;;;;;;5119223;27;20039;-77
2022/12/18 12:17:51;;;;;;;13.67;7.53;;;-0.50;67.20;;;;;;5120917;27;20111;-77
2022/12/18 12:20:26;;;;;;;13.75;7.22;;;-0.50;67.60;;;;;;5116519;27;20137;-76
2022/12/18 12:23:07;;;;;;;11.47;7.40;;;-0.50;67.50;;;;;;5116322;27;20043;-77
2022/12/18 12:25:48;;;;;;;11.43;7.70;;;-0.40;67.40;;;;;;5114964;27;20043;-76
2022/12/18 12:28:36;;;;;;;12.80;7.30;;;-0.50;67.30;;;;;;5114924;27;20143;-77
2022/12/18 12:31:07;;;;;;;14.97;8.07;;;-0.40;67.30;;;;;;5102287;27;20035;-76
2022/12/18 12:33:49;;;;;;;12.03;7.43;;;-0.50;67.50;;;;;;5096321;27;20039;-77
2022/12/18 12:36:26;;;;;;;12.13;7.57;;;-0.40;67.60;;;;;;5110821;27;20046;-77
2022/12/18 12:39:01;;;;;;;10.97;7.30;;;-0.40;67.70;;;;;;5120194;27;20039;-70
2022/12/18 12:44:25;;;;;;;9.93;6.33;;;-0.40;67.70;;;;;;5113425;28;20032;-76
2022/12/18 12:46:55;;;;;;;11.47;6.87;;;-0.30;67.60;;;;;;5109846;28;20044;-76
2022/12/18 12:49:22;;;;;;;11.23;6.93;;;-0.30;67.60;;;;;;5105640;28;20047;-76
2022/12/18 12:52:23;;;;;;;9.63;6.33;;;-0.30;67.70;;;;;;5096486;28;20039;-76
2022/12/18 12:54:50;;;;;;;11.00;5.70;;;-0.30;67.50;;;;;;5108519;28;20086;-76
2022/12/18 12:57:22;;;;;;;9.33;6.50;;;-0.30;67.40;;;;;;5113904;28;20094;-78